Time;durP1;ratioP1;P1;durP2;ratioP2;P2;SDS_P1;SDS_P2;PMS_P1;PMS_P2;Temp;Humidity;BMP_temperature;BMP_pressure;BME280_temperature;BME280_humidity;BME280_pressure;Samples;Min_cycle;Max_cycle;Signal;HPM_P1;HPM_P2
2023/08/04 00:01:13;;;;;;;2.20;1.63;;;24.90;54.30;;;;;;5014745;28;20172;-71
2023/08/04 00:03:38;;;;;;;1.60;1.27;;;24.90;54.30;;;;;;4996947;28;20164;-71
2023/08/04 00:06:09;;;;;;;1.93;1.53;;;24.90;54.30;;;;;;5014552;28;20173;-70
2023/08/04 00:08:34;;;;;;;2.13;1.60;;;24.90;54.30;;;;;;5014369;28;20307;-70
2023/08/04 00:11:00;;;;;;;2.27;1.63;;;24.90;54.30;;;;;;5014420;28;20976;-71
2023/08/04 00:13:25;;;;;;;2.10;1.60;;;24.90;54.30;;;;;;5014437;28;20181;-69
2023/08/04 00:15:51;;;;;;;1.53;1.40;;;24.90;54.30;;;;;;5014346;28;20169;-71
2023/08/04 00:18:16;;;;;;;2.20;1.70;;;24.90;54.30;;;;;;5013064;28;20183;-70
2023/08/04 00:20:42;;;;;;;1.67;1.50;;;24.90;54.30;;;;;;5014201;28;20279;-70
2023/08/04 00:23:08;;;;;;;1.50;1.37;;;24.90;54.40;;;;;;5014240;28;20185;-70
2023/08/04 00:25:33;;;;;;;1.83;1.57;;;24.90;54.40;;;;;;5014204;28;20174;-70
2023/08/04 00:27:59;;;;;;;2.00;1.33;;;24.90;54.40;;;;;;5014277;28;20270;-70
2023/08/04 00:30:25;;;;;;;1.73;1.37;;;24.90;54.30;;;;;;5014024;28;20250;-70
2023/08/04 00:32:51;;;;;;;2.50;1.30;;;24.90;54.40;;;;;;5014357;28;20187;-69
2023/08/04 00:35:16;;;;;;;2.40;1.50;;;24.80;54.30;;;;;;5013769;28;20843;-70
2023/08/04 00:37:42;;;;;;;1.60;1.40;;;24.90;54.40;;;;;;5013955;28;20417;-71
2023/08/04 00:40:08;;;;;;;1.70;1.60;;;24.90;54.40;;;;;;5014008;28;20222;-70
2023/08/04 00:42:34;;;;;;;1.63;1.50;;;24.80;54.30;;;;;;5012630;28;20184;-70
2023/08/04 00:44:59;;;;;;;1.60;1.50;;;24.80;54.30;;;;;;5013860;28;20404;-70
2023/08/04 00:47:25;;;;;;;1.93;1.37;;;24.80;54.30;;;;;;5013814;28;20208;-69
2023/08/04 00:49:53;;;;;;;1.40;1.20;;;24.80;54.30;;;;;;5013733;28;20560;-71
2023/08/04 00:52:19;;;;;;;1.90;1.40;;;24.80;54.40;;;;;;5014039;28;20192;-70
2023/08/04 00:54:46;;;;;;;1.40;1.20;;;24.80;54.40;;;;;;5013685;28;20407;-71
2023/08/04 00:57:12;;;;;;;1.90;1.70;;;24.80;54.30;;;;;;5013756;28;20420;-71
2023/08/04 00:59:37;;;;;;;2.43;1.80;;;24.80;54.30;;;;;;5013603;28;20433;-69
2023/08/04 01:02:03;;;;;;;1.80;1.30;;;24.80;54.70;;;;;;5013575;28;20176;-70
2023/08/04 01:04:29;;;;;;;2.10;1.37;;;24.80;54.40;;;;;;5013641;28;20176;-70
2023/08/04 01:07:23;;;;;;;1.77;1.47;;;24.80;54.40;;;;;;5013572;28;20205;-70
2023/08/04 01:10:03;;;;;;;1.90;1.60;;;24.80;54.40;;;;;;5013393;28;20797;-70
2023/08/04 01:12:51;;;;;;;1.70;1.60;;;24.80;54.40;;;;;;5013456;28;20406;-70
2023/08/04 01:15:17;;;;;;;1.83;1.50;;;24.80;54.40;;;;;;5012120;28;20403;-70
2023/08/04 01:17:42;;;;;;;1.77;1.50;;;24.80;54.40;;;;;;5012076;28;20408;-70
2023/08/04 01:20:09;;;;;;;1.90;1.37;;;24.80;54.40;;;;;;5013230;28;20435;-70
2023/08/04 01:22:34;;;;;;;1.83;1.50;;;24.80;54.40;;;;;;5013143;28;20248;-70
2023/08/04 01:25:01;;;;;;;1.50;1.20;;;24.80;54.40;;;;;;5013144;28;20827;-70
2023/08/04 01:27:37;;;;;;;1.27;1.10;;;24.70;54.30;;;;;;5013083;28;20227;-70
2023/08/04 01:30:06;;;;;;;1.47;1.37;;;24.80;54.40;;;;;;5012619;28;20427;-71
2023/08/04 01:32:32;;;;;;;1.60;1.40;;;24.80;54.40;;;;;;5012952;28;20411;-69
2023/08/04 01:34:58;;;;;;;2.13;1.40;;;24.80;54.40;;;;;;5011841;28;20538;-70
2023/08/04 01:37:24;;;;;;;1.43;1.30;;;24.70;54.30;;;;;;5012933;28;20422;-71
2023/08/04 01:39:50;;;;;;;2.40;1.50;;;24.70;54.40;;;;;;5012732;28;20435;-70
2023/08/04 01:42:15;;;;;;;1.33;1.23;;;24.70;54.30;;;;;;5012900;28;20160;-70
2023/08/04 01:44:41;;;;;;;1.63;1.33;;;24.70;54.30;;;;;;5011546;28;20415;-70
2023/08/04 01:47:07;;;;;;;2.90;1.80;;;24.70;54.40;;;;;;5012722;28;20283;-70
2023/08/04 01:49:33;;;;;;;2.40;1.60;;;24.70;54.30;;;;;;5011427;28;20192;-70
2023/08/04 01:51:59;;;;;;;1.60;1.50;;;24.70;54.30;;;;;;5012735;28;20557;-70
2023/08/04 01:54:25;;;;;;;1.50;1.40;;;24.70;54.30;;;;;;5011381;28;20498;-70
2023/08/04 01:56:51;;;;;;;1.80;1.47;;;24.70;54.30;;;;;;5012902;28;20180;-70
2023/08/04 01:59:16;;;;;;;1.97;1.57;;;24.70;54.30;;;;;;5012554;28;20680;-70
2023/08/04 02:01:42;;;;;;;1.77;1.50;;;24.70;54.30;;;;;;5012853;28;20183;-71
2023/08/04 02:04:08;;;;;;;1.30;1.17;;;24.70;54.30;;;;;;5011302;28;20212;-70
2023/08/04 02:06:33;;;;;;;1.63;1.40;;;24.70;54.30;;;;;;5012772;28;20180;-71
2023/08/04 02:08:59;;;;;;;1.50;1.40;;;24.70;54.40;;;;;;5012721;28;20188;-70
2023/08/04 02:11:24;;;;;;;1.73;1.30;;;24.70;54.40;;;;;;5013057;28;20165;-70
2023/08/04 02:13:50;;;;;;;1.80;1.57;;;24.70;54.40;;;;;;5012309;28;20179;-70
2023/08/04 02:16:16;;;;;;;1.57;1.47;;;24.70;54.40;;;;;;5012296;28;20649;-70
2023/08/04 02:18:41;;;;;;;1.37;1.27;;;24.70;54.40;;;;;;5012327;28;20199;-70
2023/08/04 02:21:07;;;;;;;1.60;1.43;;;24.70;54.40;;;;;;5012383;28;20271;-70
2023/08/04 02:23:33;;;;;;;1.50;1.33;;;24.70;54.40;;;;;;5012295;28;20168;-70
2023/08/04 02:25:58;;;;;;;1.57;1.27;;;24.70;54.40;;;;;;5012259;28;20234;-70
2023/08/04 02:28:24;;;;;;;1.93;1.30;;;24.70;54.40;;;;;;5012137;28;20199;-71
2023/08/04 02:30:49;;;;;;;1.57;1.40;;;24.70;54.40;;;;;;5012231;28;20183;-70
2023/08/04 02:33:15;;;;;;;1.57;1.40;;;24.70;54.40;;;;;;5012206;28;20534;-71
2023/08/04 02:35:40;;;;;;;1.37;1.20;;;24.70;54.40;;;;;;5012185;28;20176;-70
2023/08/04 02:38:06;;;;;;;2.23;1.30;;;24.70;54.40;;;;;;5012174;28;20180;-70
2023/08/04 02:40:38;;;;;;;1.50;1.17;;;24.60;54.30;;;;;;5012011;28;20895;-70
2023/08/04 02:43:03;;;;;;;1.60;1.50;;;24.70;54.40;;;;;;5015873;28;20171;-70
2023/08/04 02:45:29;;;;;;;1.30;1.20;;;24.60;54.30;;;;;;5016202;28;20419;-70
2023/08/04 02:47:54;;;;;;;1.23;1.00;;;24.60;54.30;;;;;;5016316;28;20203;-70
2023/08/04 02:50:20;;;;;;;1.53;1.30;;;24.60;54.40;;;;;;5016125;28;20211;-70
2023/08/04 02:52:45;;;;;;;2.20;1.70;;;24.60;54.40;;;;;;5016371;28;20255;-71
2023/08/04 02:55:12;;;;;;;1.60;1.20;;;24.60;54.40;;;;;;5014770;28;20187;-70
2023/08/04 02:57:38;;;;;;;1.57;1.47;;;24.60;54.40;;;;;;5016266;28;20653;-70
2023/08/04 03:00:04;;;;;;;2.33;1.60;;;24.60;54.30;;;;;;5015873;28;20466;-71
2023/08/04 03:02:30;;;;;;;1.90;1.40;;;24.60;54.30;;;;;;5015810;28;20179;-70
2023/08/04 03:04:56;;;;;;;1.63;1.30;;;24.60;54.40;;;;;;5016076;28;20419;-70
2023/08/04 03:07:21;;;;;;;1.43;1.30;;;24.60;54.40;;;;;;5015637;28;20238;-71
2023/08/04 03:09:47;;;;;;;1.70;1.40;;;24.60;54.40;;;;;;5015673;28;20202;-71
2023/08/04 03:12:13;;;;;;;1.77;1.60;;;24.60;54.40;;;;;;5015661;28;20176;-70
2023/08/04 03:14:38;;;;;;;2.10;1.30;;;24.60;54.40;;;;;;5015647;28;20172;-69
2023/08/04 03:17:04;;;;;;;1.80;1.40;;;24.60;54.40;;;;;;5015586;28;20406;-71
2023/08/04 03:19:30;;;;;;;1.53;1.20;;;24.60;54.40;;;;;;4997812;28;20204;-71
2023/08/04 03:21:55;;;;;;;1.63;1.53;;;24.60;54.40;;;;;;5015725;28;20425;-70
2023/08/04 03:24:21;;;;;;;1.87;1.40;;;24.60;54.40;;;;;;5015383;28;20593;-71
2023/08/04 03:26:46;;;;;;;1.47;1.37;;;24.60;54.40;;;;;;5015350;28;20231;-70
2023/08/04 03:29:12;;;;;;;2.00;1.60;;;24.60;54.40;;;;;;5015293;28;20254;-70
2023/08/04 03:31:38;;;;;;;1.47;1.10;;;24.60;54.40;;;;;;5015313;28;20169;-70
2023/08/04 03:34:03;;;;;;;1.60;1.50;;;24.60;54.40;;;;;;5013935;28;20776;-69
2023/08/04 03:36:31;;;;;;;1.43;1.33;;;24.60;54.40;;;;;;5015283;28;20256;-70
2023/08/04 03:38:56;;;;;;;1.23;1.13;;;24.60;54.40;;;;;;5015298;28;20204;-69
2023/08/04 03:41:22;;;;;;;2.40;1.47;;;24.60;54.40;;;;;;5015090;28;20441;-70
2023/08/04 03:43:47;;;;;;;1.20;1.10;;;24.60;54.40;;;;;;5015103;28;20176;-70
2023/08/04 03:46:13;;;;;;;1.90;1.70;;;24.60;54.40;;;;;;5015273;28;20203;-70
2023/08/04 03:48:38;;;;;;;1.20;1.10;;;24.60;54.40;;;;;;5014924;28;20208;-69
2023/08/04 03:51:04;;;;;;;1.60;1.20;;;24.60;54.40;;;;;;5014959;28;20176;-70
2023/08/04 03:53:29;;;;;;;1.70;1.50;;;24.60;54.90;;;;;;5013226;28;20268;-70
2023/08/04 03:55:55;;;;;;;1.83;1.30;;;24.60;54.40;;;;;;5014862;28;20168;-70
2023/08/04 03:58:21;;;;;;;1.13;0.90;;;24.60;54.40;;;;;;5014691;28;20292;-69
2023/08/04 04:00:46;;;;;;;1.50;1.23;;;24.60;54.40;;;;;;5014762;28;20176;-70
2023/08/04 04:03:12;;;;;;;1.40;1.10;;;24.60;54.40;;;;;;5014692;28;20549;-70
2023/08/04 04:05:38;;;;;;;1.90;1.17;;;24.60;54.40;;;;;;5013398;28;20187;-70
2023/08/04 04:08:04;;;;;;;1.37;1.20;;;24.60;54.40;;;;;;5014768;28;20200;-70
2023/08/04 04:10:30;;;;;;;2.10;1.20;;;24.60;54.40;;;;;;5014485;28;20426;-70
2023/08/04 04:12:55;;;;;;;1.60;1.33;;;24.60;54.40;;;;;;5014561;28;20180;-70
2023/08/04 04:15:21;;;;;;;1.43;1.00;;;24.60;54.40;;;;;;5014452;28;20176;-70
2023/08/04 04:17:47;;;;;;;1.30;1.10;;;24.60;54.40;;;;;;5014428;28;20188;-70
2023/08/04 04:20:12;;;;;;;1.57;1.20;;;24.60;54.40;;;;;;5014285;28;20295;-70
2023/08/04 04:22:38;;;;;;;1.60;1.20;;;24.60;54.40;;;;;;5014347;28;20419;-71
2023/08/04 04:25:04;;;;;;;1.60;1.33;;;24.60;54.40;;;;;;5014508;28;20680;-71
2023/08/04 04:27:30;;;;;;;1.33;1.20;;;24.60;54.40;;;;;;5014439;28;20463;-71
2023/08/04 04:29:56;;;;;;;1.80;1.30;;;24.60;54.40;;;;;;5012900;28;20447;-70
2023/08/04 04:32:21;;;;;;;1.60;1.40;;;24.50;54.30;;;;;;5012827;28;20212;-70
2023/08/04 04:34:47;;;;;;;3.83;1.27;;;24.50;54.30;;;;;;5014062;28;20207;-70
2023/08/04 04:37:13;;;;;;;1.27;1.17;;;24.50;54.30;;;;;;5014039;28;20212;-70
2023/08/04 04:39:38;;;;;;;1.50;1.30;;;24.50;54.30;;;;;;5012551;28;20206;-70
2023/08/04 04:42:05;;;;;;;1.50;1.33;;;24.50;54.30;;;;;;5013994;28;20181;-71
2023/08/04 04:44:30;;;;;;;1.70;1.30;;;24.50;54.30;;;;;;5013926;28;20211;-70
2023/08/04 04:46:56;;;;;;;1.60;1.30;;;24.50;54.40;;;;;;5013862;28;20885;-69
2023/08/04 04:49:22;;;;;;;1.60;1.20;;;24.50;54.30;;;;;;5014051;28;20250;-71
2023/08/04 04:51:47;;;;;;;1.70;1.40;;;24.50;54.30;;;;;;5013854;28;20180;-70
2023/08/04 04:54:13;;;;;;;1.60;1.40;;;24.50;54.30;;;;;;5013997;28;20643;-69
2023/08/04 04:56:39;;;;;;;1.40;1.20;;;24.50;54.30;;;;;;5012391;28;20177;-70
2023/08/04 04:59:04;;;;;;;1.33;1.17;;;24.50;54.30;;;;;;5013676;28;20539;-70
2023/08/04 05:01:30;;;;;;;2.47;1.40;;;24.50;54.30;;;;;;5013643;28;20259;-71
2023/08/04 05:03:55;;;;;;;1.20;1.03;;;24.50;54.30;;;;;;5012845;28;20212;-70
2023/08/04 05:06:21;;;;;;;2.07;1.50;;;24.50;54.30;;;;;;5013543;28;20176;-71
2023/08/04 05:08:47;;;;;;;1.20;1.00;;;24.50;54.30;;;;;;5013351;28;20223;-69
2023/08/04 05:11:12;;;;;;;1.70;1.30;;;24.50;54.30;;;;;;5013404;28;20176;-70
2023/08/04 05:13:40;;;;;;;1.17;1.00;;;24.50;54.30;;;;;;5012120;28;20176;-70
2023/08/04 05:16:06;;;;;;;1.60;0.93;;;24.50;54.30;;;;;;5013465;28;20549;-70
2023/08/04 05:18:31;;;;;;;1.40;1.20;;;24.50;54.40;;;;;;5013266;28;20903;-70
2023/08/04 05:20:57;;;;;;;1.40;1.20;;;24.50;54.30;;;;;;5013244;28;20176;-71
2023/08/04 05:23:22;;;;;;;1.43;1.27;;;24.50;54.30;;;;;;5013222;28;20214;-70
2023/08/04 05:25:48;;;;;;;1.17;1.07;;;24.50;54.30;;;;;;5013407;28;20179;-71
2023/08/04 05:28:24;;;;;;;1.43;1.10;;;24.50;54.30;;;;;;5013179;28;20207;-69
2023/08/04 05:30:55;;;;;;;1.43;1.03;;;24.50;54.30;;;;;;5013133;28;20186;-70
2023/08/04 05:33:20;;;;;;;1.17;1.00;;;24.50;54.30;;;;;;5013067;28;20416;-70
2023/08/04 05:35:47;;;;;;;1.43;1.20;;;24.50;54.30;;;;;;5013544;28;20421;-70
2023/08/04 05:38:13;;;;;;;2.50;1.37;;;24.50;54.30;;;;;;5012990;28;20184;-71
2023/08/04 05:40:41;;;;;;;1.87;1.20;;;24.50;54.30;;;;;;5012710;28;20546;-70
2023/08/04 05:43:06;;;;;;;1.10;1.00;;;24.50;54.30;;;;;;5012823;28;20427;-71
2023/08/04 05:45:36;;;;;;;1.83;1.30;;;24.50;54.30;;;;;;5012762;28;20422;-70
2023/08/04 05:48:02;;;;;;;1.70;1.30;;;24.50;54.30;;;;;;5012659;28;20592;-69
2023/08/04 05:50:28;;;;;;;1.23;1.10;;;24.50;54.30;;;;;;5012887;28;20427;-70
2023/08/04 05:52:53;;;;;;;1.70;1.30;;;24.50;54.30;;;;;;5012674;28;20173;-70
2023/08/04 05:55:22;;;;;;;1.50;1.10;;;24.50;54.30;;;;;;5012594;28;20172;-71
2023/08/04 05:57:48;;;;;;;1.80;1.20;;;24.50;54.30;;;;;;5012578;28;20180;-70
2023/08/04 06:00:13;;;;;;;1.30;1.10;;;24.50;54.30;;;;;;5012488;28;20492;-70
2023/08/04 06:02:41;;;;;;;1.30;1.17;;;24.50;54.40;;;;;;5012602;28;20683;-70
2023/08/04 06:05:07;;;;;;;1.20;1.00;;;24.50;54.40;;;;;;5012486;28;20173;-70
2023/08/04 06:07:33;;;;;;;1.40;1.10;;;24.50;54.40;;;;;;5012379;28;20462;-70
2023/08/04 06:09:58;;;;;;;1.53;1.10;;;24.50;54.40;;;;;;5012598;28;20435;-70
2023/08/04 06:12:24;;;;;;;1.33;1.10;;;24.50;54.30;;;;;;5012416;28;20165;-70
2023/08/04 06:14:50;;;;;;;1.20;1.00;;;24.50;54.40;;;;;;5012723;28;20172;-71
2023/08/04 06:17:15;;;;;;;1.30;1.20;;;24.50;54.40;;;;;;5011024;28;20259;-71
2023/08/04 06:19:44;;;;;;;1.40;1.03;;;24.50;54.30;;;;;;5012315;28;20244;-70
2023/08/04 06:22:10;;;;;;;1.20;1.03;;;24.50;54.30;;;;;;5012293;28;20176;-70
2023/08/04 06:24:35;;;;;;;1.83;1.50;;;24.50;54.40;;;;;;5012304;28;20904;-70
2023/08/04 06:27:03;;;;;;;1.33;1.10;;;24.50;54.40;;;;;;5012640;28;20226;-69
2023/08/04 06:29:29;;;;;;;1.80;1.37;;;24.50;54.50;;;;;;5012298;28;20271;-71
2023/08/04 06:31:55;;;;;;;1.33;1.20;;;24.50;54.40;;;;;;5012929;28;20975;-71
2023/08/04 06:34:20;;;;;;;1.20;1.00;;;24.50;54.50;;;;;;5012796;28;20172;-70
2023/08/04 06:36:47;;;;;;;1.37;1.20;;;24.50;54.50;;;;;;5012763;28;20172;-71
2023/08/04 06:39:12;;;;;;;1.23;1.07;;;24.50;54.60;;;;;;5012614;28;20215;-72
2023/08/04 06:41:38;;;;;;;1.67;1.27;;;24.50;54.60;;;;;;5012086;28;20544;-70
2023/08/04 06:44:04;;;;;;;1.50;1.30;;;24.50;54.60;;;;;;5011057;28;20590;-71
2023/08/04 06:46:30;;;;;;;1.73;1.50;;;24.50;54.80;;;;;;5012125;28;20415;-71
2023/08/04 06:48:55;;;;;;;1.40;1.20;;;24.50;54.80;;;;;;5011985;28;20200;-71
2023/08/04 06:51:21;;;;;;;3.40;1.87;;;24.50;54.90;;;;;;5010860;28;20173;-70
2023/08/04 06:53:47;;;;;;;2.10;1.47;;;24.50;54.90;;;;;;5010787;28;20189;-72
2023/08/04 06:56:12;;;;;;;1.70;1.50;;;24.50;55.00;;;;;;5012294;28;20597;-71
2023/08/04 06:58:38;;;;;;;1.60;1.50;;;24.50;54.90;;;;;;5011915;28;20204;-71
2023/08/04 07:01:03;;;;;;;1.60;1.30;;;24.50;55.00;;;;;;5010931;28;20219;-72
2023/08/04 07:03:29;;;;;;;2.30;1.67;;;24.50;54.90;;;;;;5011851;28;20172;-70
2023/08/04 07:05:55;;;;;;;3.30;1.20;;;24.50;54.90;;;;;;5011914;28;20539;-71
2023/08/04 07:08:20;;;;;;;2.07;1.30;;;24.50;55.00;;;;;;5011765;28;20200;-71
2023/08/04 07:10:46;;;;;;;2.17;1.30;;;24.50;54.80;;;;;;5011783;28;20223;-70
2023/08/04 07:13:11;;;;;;;2.13;1.50;;;24.50;54.80;;;;;;5011870;28;20216;-71
2023/08/04 07:15:37;;;;;;;1.57;1.27;;;24.50;54.90;;;;;;5010933;28;20179;-71
2023/08/04 07:18:02;;;;;;;1.80;1.50;;;24.50;54.80;;;;;;5012171;28;20180;-70
2023/08/04 07:20:28;;;;;;;3.10;1.80;;;24.50;54.80;;;;;;5012083;28;20196;-71
2023/08/04 07:22:54;;;;;;;1.60;1.30;;;24.50;54.70;;;;;;5011862;28;20223;-71
2023/08/04 07:25:20;;;;;;;1.90;1.40;;;24.50;54.60;;;;;;5012022;28;20188;-71
2023/08/04 07:27:46;;;;;;;1.77;1.30;;;24.50;54.60;;;;;;5013100;28;20454;-72
2023/08/04 07:30:13;;;;;;;1.70;1.27;;;24.60;54.70;;;;;;5013782;28;20200;-71
2023/08/04 07:32:39;;;;;;;3.13;1.90;;;24.60;54.70;;;;;;5015325;28;20168;-69
2023/08/04 07:35:05;;;;;;;1.90;1.60;;;24.60;54.70;;;;;;4997529;28;20422;-71
2023/08/04 07:37:32;;;;;;;2.33;1.40;;;24.60;54.70;;;;;;4997800;28;20939;-71
2023/08/04 07:39:58;;;;;;;1.97;1.33;;;24.60;54.70;;;;;;5015104;28;20980;-72
2023/08/04 07:42:24;;;;;;;1.93;1.67;;;24.60;54.70;;;;;;5015212;28;20400;-71
2023/08/04 07:44:50;;;;;;;2.27;1.40;;;24.60;54.70;;;;;;5015150;28;20415;-71
2023/08/04 07:47:15;;;;;;;2.03;1.20;;;24.60;54.70;;;;;;5015008;28;20465;-71
2023/08/04 07:49:41;;;;;;;1.50;1.37;;;24.70;54.80;;;;;;5014004;28;20194;-72
2023/08/04 07:52:07;;;;;;;3.83;1.33;;;24.70;54.70;;;;;;4997227;28;20638;-72
2023/08/04 07:54:33;;;;;;;1.40;1.10;;;24.70;54.70;;;;;;5014986;28;20203;-71
2023/08/04 07:57:01;;;;;;;1.87;1.50;;;24.70;54.70;;;;;;5015185;28;20181;-71
2023/08/04 07:59:27;;;;;;;1.30;1.17;;;24.70;55.30;;;;;;5014829;28;20940;-71
2023/08/04 08:01:52;;;;;;;1.80;1.40;;;24.70;54.70;;;;;;5015172;28;20418;-72
2023/08/04 08:04:18;;;;;;;2.03;1.63;;;24.70;54.70;;;;;;5014838;28;20260;-71
2023/08/04 08:06:43;;;;;;;1.73;1.20;;;24.70;54.70;;;;;;4997107;28;20176;-71
2023/08/04 08:09:11;;;;;;;1.70;1.43;;;24.80;54.80;;;;;;4997042;28;20192;-71
2023/08/04 08:11:37;;;;;;;1.33;1.10;;;24.80;54.80;;;;;;5014831;28;20169;-72
2023/08/04 08:14:03;;;;;;;2.50;1.57;;;24.80;54.80;;;;;;5013129;28;20466;-71
2023/08/04 08:16:28;;;;;;;2.23;1.30;;;24.80;54.80;;;;;;5014452;28;20411;-72
2023/08/04 08:18:54;;;;;;;1.83;1.50;;;24.80;54.80;;;;;;5014348;28;20216;-71
2023/08/04 08:21:19;;;;;;;1.60;1.40;;;24.80;54.80;;;;;;5014396;28;20231;-72
2023/08/04 08:23:45;;;;;;;1.63;1.23;;;24.80;54.80;;;;;;4996700;28;20187;-70
2023/08/04 08:26:11;;;;;;;2.80;1.23;;;24.80;54.80;;;;;;5013380;28;20206;-71
2023/08/04 08:28:36;;;;;;;1.50;1.10;;;24.80;54.80;;;;;;5014174;28;20247;-70
2023/08/04 08:31:02;;;;;;;2.80;1.40;;;24.80;55.30;;;;;;5014597;28;20206;-71
2023/08/04 08:33:27;;;;;;;1.20;0.90;;;24.80;54.70;;;;;;5014269;28;20177;-72
2023/08/04 08:35:54;;;;;;;1.23;0.97;;;24.90;54.80;;;;;;5013441;28;20210;-71
2023/08/04 08:38:20;;;;;;;1.40;1.10;;;24.80;54.80;;;;;;5012733;28;20184;-71
2023/08/04 08:40:48;;;;;;;3.07;1.30;;;24.90;54.80;;;;;;5012193;28;20442;-73
2023/08/04 08:43:15;;;;;;;1.60;1.27;;;24.90;54.80;;;;;;5013336;28;20306;-72
2023/08/04 08:45:43;;;;;;;1.50;1.20;;;24.90;54.80;;;;;;4996130;28;20506;-71
2023/08/04 08:48:10;;;;;;;2.83;1.30;;;24.90;54.80;;;;;;5013841;28;20613;-71
2023/08/04 08:50:37;;;;;;;1.37;1.13;;;24.90;54.80;;;;;;4996246;28;20447;-71
2023/08/04 08:53:10;;;;;;;1.43;1.00;;;24.90;54.80;;;;;;4996210;28;20422;-71
2023/08/04 08:55:37;;;;;;;1.97;1.20;;;24.90;54.80;;;;;;5013853;28;20404;-71
2023/08/04 08:58:03;;;;;;;2.07;1.20;;;24.90;54.80;;;;;;5014071;28;20423;-71
2023/08/04 09:00:29;;;;;;;1.83;1.17;;;24.90;54.80;;;;;;5013605;28;20435;-70
2023/08/04 09:02:55;;;;;;;1.40;1.10;;;24.90;54.80;;;;;;5013667;28;20465;-72
2023/08/04 09:05:21;;;;;;;3.27;1.30;;;24.90;55.30;;;;;;5013575;28;20180;-69
2023/08/04 09:07:50;;;;;;;2.27;1.30;;;24.90;54.80;;;;;;5013523;28;20318;-71
2023/08/04 09:10:16;;;;;;;1.70;1.30;;;24.90;54.80;;;;;;5013378;28;20501;-71
2023/08/04 09:12:45;;;;;;;1.47;1.20;;;24.90;54.80;;;;;;5013541;28;20991;-72
2023/08/04 09:15:12;;;;;;;1.40;1.10;;;25.00;54.80;;;;;;5013408;28;20716;-71
2023/08/04 09:17:40;;;;;;;1.47;1.20;;;25.00;55.40;;;;;;5013599;28;20415;-71
2023/08/04 09:20:10;;;;;;;2.70;1.40;;;25.00;54.80;;;;;;5013192;28;20438;-72
2023/08/04 09:22:43;;;;;;;1.47;1.03;;;25.00;54.80;;;;;;5013332;28;20446;-71
2023/08/04 09:25:09;;;;;;;1.83;1.10;;;25.00;54.80;;;;;;5013302;28;20415;-70
2023/08/04 09:27:38;;;;;;;2.17;1.20;;;25.00;54.80;;;;;;5013414;28;20494;-72
2023/08/04 09:30:08;;;;;;;2.17;1.67;;;25.00;54.80;;;;;;5013150;28;20431;-70
2023/08/04 09:32:52;;;;;;;2.60;1.20;;;25.00;54.90;;;;;;5013156;28;20392;-72
2023/08/04 09:35:17;;;;;;;3.00;1.53;;;25.00;54.80;;;;;;5013124;28;20410;-71
2023/08/04 09:37:43;;;;;;;1.40;1.20;;;25.00;54.80;;;;;;4995703;28;20419;-71
2023/08/04 09:40:17;;;;;;;1.83;1.00;;;25.00;54.80;;;;;;5013118;28;20227;-70
2023/08/04 09:42:43;;;;;;;1.30;1.20;;;25.00;54.90;;;;;;5013000;28;20408;-72
2023/08/04 09:45:13;;;;;;;3.53;1.23;;;25.00;54.80;;;;;;5012962;28;20427;-71
2023/08/04 09:47:39;;;;;;;1.20;1.00;;;25.00;54.80;;;;;;5012819;28;20227;-71
2023/08/04 09:50:09;;;;;;;2.30;1.27;;;25.00;54.80;;;;;;5012511;28;20427;-71
2023/08/04 09:52:35;;;;;;;4.53;1.47;;;25.00;54.90;;;;;;5012835;28;20215;-72
2023/08/04 09:55:01;;;;;;;1.50;1.40;;;25.00;54.80;;;;;;5012751;28;20501;-71
2023/08/04 09:57:27;;;;;;;1.50;1.07;;;25.00;54.90;;;;;;5012787;28;20497;-71
2023/08/04 09:59:53;;;;;;;1.77;1.07;;;25.10;54.90;;;;;;5012620;28;20192;-72
2023/08/04 10:02:19;;;;;;;1.33;1.00;;;25.00;54.80;;;;;;5012547;28;20502;-71
2023/08/04 10:04:50;;;;;;;1.63;1.30;;;25.10;54.90;;;;;;5012557;28;20191;-71
2023/08/04 10:07:19;;;;;;;1.60;1.10;;;25.10;55.00;;;;;;5012381;28;20492;-72
2023/08/04 10:09:48;;;;;;;2.87;1.20;;;25.00;54.90;;;;;;4994675;28;20439;-71
2023/08/04 10:12:16;;;;;;;1.43;1.07;;;25.10;54.90;;;;;;4994795;28;20518;-71
2023/08/04 10:14:42;;;;;;;2.17;1.10;;;25.10;54.90;;;;;;5012283;28;20485;-71
2023/08/04 10:17:08;;;;;;;1.27;1.13;;;25.10;55.00;;;;;;4994838;28;20920;-72
2023/08/04 10:19:35;;;;;;;1.60;1.20;;;25.10;54.90;;;;;;5012242;28;20450;-72
2023/08/04 10:22:09;;;;;;;1.40;1.30;;;25.10;55.00;;;;;;5012332;28;20415;-72
2023/08/04 10:24:36;;;;;;;2.03;1.30;;;25.10;55.00;;;;;;5012356;28;20408;-71
2023/08/04 10:27:18;;;;;;;2.63;1.50;;;25.10;54.90;;;;;;5012204;28;20459;-74
2023/08/04 10:29:45;;;;;;;3.30;1.17;;;25.10;55.10;;;;;;4994541;28;20439;-72
2023/08/04 10:32:10;;;;;;;1.77;1.20;;;25.10;55.00;;;;;;5012434;28;20498;-74
2023/08/04 10:34:43;;;;;;;1.33;0.90;;;25.10;55.60;;;;;;5012287;28;20499;-74
2023/08/04 10:37:18;;;;;;;1.50;1.17;;;25.10;55.00;;;;;;5012192;28;20215;-73
2023/08/04 10:39:48;;;;;;;2.60;1.53;;;25.10;55.00;;;;;;5011983;28;20454;-74
2023/08/04 10:42:29;;;;;;;1.20;1.00;;;25.10;55.00;;;;;;5012152;28;20400;-73
2023/08/04 10:45:06;;;;;;;2.30;1.30;;;25.10;55.00;;;;;;5012116;28;20411;-74
2023/08/04 10:47:45;;;;;;;1.63;1.10;;;25.10;55.00;;;;;;5011856;28;20461;-74
2023/08/04 10:50:12;;;;;;;1.23;1.07;;;25.10;55.00;;;;;;5011862;28;20439;-73
2023/08/04 10:52:38;;;;;;;1.20;1.00;;;25.00;54.90;;;;;;5012129;28;20806;-73
2023/08/04 10:55:09;;;;;;;1.20;1.03;;;25.10;55.00;;;;;;5011949;28;20918;-74
2023/08/04 10:57:36;;;;;;;1.80;1.10;;;25.10;55.50;;;;;;5012267;28;20923;-73
2023/08/04 11:00:05;;;;;;;2.03;1.20;;;25.10;55.00;;;;;;5011835;28;20506;-73
2023/08/04 11:02:31;;;;;;;1.50;1.00;;;25.10;54.90;;;;;;5013003;28;20416;-74
2023/08/04 11:04:57;;;;;;;1.40;1.10;;;25.10;55.00;;;;;;5015860;28;20928;-74
2023/08/04 11:07:24;;;;;;;1.60;1.00;;;25.00;54.90;;;;;;5015752;28;20509;-74
2023/08/04 11:09:51;;;;;;;1.83;1.07;;;25.10;54.90;;;;;;5015639;28;20192;-73
2023/08/04 11:12:17;;;;;;;1.40;1.10;;;25.10;54.90;;;;;;4998077;28;20420;-74
2023/08/04 11:14:43;;;;;;;2.10;1.17;;;25.10;55.00;;;;;;5015677;28;20534;-75
2023/08/04 11:17:16;;;;;;;4.17;1.30;;;25.10;55.00;;;;;;5015617;28;20465;-74
2023/08/04 11:19:46;;;;;;;2.57;1.20;;;25.10;55.00;;;;;;5015198;28;20859;-74
2023/08/04 11:22:14;;;;;;;1.83;1.47;;;25.10;55.00;;;;;;5015526;28;20441;-73
2023/08/04 11:24:40;;;;;;;2.40;1.40;;;25.00;54.90;;;;;;5015031;28;20422;-74
2023/08/04 11:27:07;;;;;;;1.93;1.50;;;25.10;54.90;;;;;;4996755;28;20466;-73
2023/08/04 11:29:32;;;;;;;2.30;1.03;;;25.10;55.00;;;;;;4997851;28;20474;-74
2023/08/04 11:31:58;;;;;;;1.50;1.20;;;25.10;55.00;;;;;;5014286;28;20441;-73
2023/08/04 11:34:24;;;;;;;2.30;1.20;;;25.10;55.00;;;;;;5015357;28;20227;-74
2023/08/04 11:36:50;;;;;;;1.43;1.10;;;25.10;55.00;;;;;;5015301;28;20187;-74
2023/08/04 11:39:15;;;;;;;1.20;1.03;;;25.10;55.00;;;;;;5015223;28;20276;-73
2023/08/04 11:41:44;;;;;;;1.10;1.00;;;25.10;55.00;;;;;;4997496;28;20192;-73
2023/08/04 11:44:10;;;;;;;1.43;1.10;;;25.10;55.00;;;;;;5015093;28;20641;-74
2023/08/04 11:46:36;;;;;;;1.40;1.17;;;25.10;55.00;;;;;;5015173;28;20469;-74
2023/08/04 11:49:06;;;;;;;1.50;1.20;;;25.10;55.00;;;;;;5014935;28;20208;-73
2023/08/04 11:51:32;;;;;;;1.77;1.13;;;25.10;55.00;;;;;;5015450;28;20645;-74
2023/08/04 11:53:58;;;;;;;1.10;1.00;;;25.10;55.00;;;;;;5014926;28;20502;-74
2023/08/04 11:56:23;;;;;;;1.30;1.13;;;25.10;55.00;;;;;;5014990;28;20498;-74
2023/08/04 11:58:54;;;;;;;1.37;1.27;;;25.10;55.00;;;;;;5014692;28;20711;-74
2023/08/04 12:01:26;;;;;;;1.70;1.00;;;25.10;55.00;;;;;;5014966;28;20183;-75
2023/08/04 12:03:52;;;;;;;1.33;1.00;;;25.10;55.00;;;;;;5014792;28;20415;-74
2023/08/04 12:06:21;;;;;;;1.30;1.00;;;25.10;55.00;;;;;;4997172;28;20427;-74
2023/08/04 12:08:51;;;;;;;1.50;1.40;;;25.10;55.00;;;;;;5014563;28;20306;-75
2023/08/04 12:11:18;;;;;;;1.60;1.17;;;25.10;55.00;;;;;;5014666;28;20416;-74
2023/08/04 12:13:44;;;;;;;1.53;1.10;;;25.10;55.00;;;;;;5014997;28;20407;-73
2023/08/04 12:16:11;;;;;;;2.20;1.60;;;25.10;55.00;;;;;;5014593;28;20915;-73
2023/08/04 12:18:37;;;;;;;1.60;1.20;;;25.10;55.00;;;;;;4996849;28;20187;-74
2023/08/04 12:21:03;;;;;;;1.90;1.23;;;25.10;55.00;;;;;;5014464;28;20427;-74
2023/08/04 12:23:28;;;;;;;1.70;1.20;;;25.10;55.00;;;;;;5015012;28;20186;-73
2023/08/04 12:25:54;;;;;;;1.30;1.00;;;25.10;55.00;;;;;;5014372;28;20972;-74
2023/08/04 12:28:20;;;;;;;1.33;1.07;;;25.10;55.00;;;;;;5014244;28;20208;-73
2023/08/04 12:30:45;;;;;;;4.30;1.03;;;25.10;55.00;;;;;;4996736;28;20279;-74
2023/08/04 12:33:11;;;;;;;1.20;1.10;;;25.10;55.00;;;;;;5014511;28;20204;-75
2023/08/04 12:35:36;;;;;;;1.20;1.10;;;25.10;55.50;;;;;;5014093;28;20180;-74
2023/08/04 12:38:04;;;;;;;1.50;1.10;;;25.10;55.00;;;;;;5014075;28;20179;-74
2023/08/04 12:40:31;;;;;;;1.40;0.97;;;25.10;55.00;;;;;;5013502;28;20239;-74
2023/08/04 12:42:56;;;;;;;1.50;1.30;;;25.10;55.00;;;;;;5013132;28;20853;-75
2023/08/04 12:45:22;;;;;;;1.23;1.00;;;25.10;54.90;;;;;;5012996;28;20411;-74